createdAt,value
2023-01-22T00:07:18.661Z,10.60
2023-01-22T00:15:27.245Z,10.30
2023-01-22T00:23:33.281Z,10.20
2023-01-22T00:31:42.026Z,10.10
2023-01-22T00:39:47.823Z,10.30
2023-01-22T00:47:55.835Z,10.50
2023-01-22T00:56:02.686Z,10.40
2023-01-22T01:04:11.455Z,10.20
2023-01-22T01:12:16.934Z,10.70
2023-01-22T01:20:24.982Z,10.40
2023-01-22T01:28:31.294Z,10.40
2023-01-22T01:36:48.697Z,10.70
2023-01-22T01:45:22.595Z,10.50
2023-01-22T01:53:31.542Z,10.50
2023-01-22T02:01:39.004Z,10.50
2023-01-22T02:09:47.306Z,10.20
2023-01-22T02:17:52.778Z,10.40
2023-01-22T02:26:03.018Z,10.30
2023-01-22T02:34:10.121Z,10.50
2023-01-22T02:42:18.447Z,10.40
2023-01-22T02:50:24.506Z,10.20
2023-01-22T02:58:33.155Z,10.40
2023-01-22T03:06:39.966Z,10.80
2023-01-22T03:15:00.894Z,10.20
2023-01-22T03:23:06.658Z,10.20
2023-01-22T03:31:15.282Z,9.50
2023-01-22T03:39:21.174Z,9.40
2023-01-22T03:47:29.543Z,9.60
2023-01-22T03:55:35.055Z,10.10
2023-01-22T04:03:45.356Z,10.30
2023-01-22T04:11:51.276Z,10.60
2023-01-22T04:20:00.190Z,10.60
2023-01-22T04:28:24.727Z,10.40
2023-01-22T04:36:35.803Z,10.30
2023-01-22T04:44:41.240Z,10.50
2023-01-22T04:52:49.858Z,10.90
2023-01-22T05:00:55.576Z,9.60
2023-01-22T05:09:03.970Z,10.10
2023-01-22T05:17:18.691Z,10.30
2023-01-22T05:25:26.825Z,10.50
2023-01-22T05:33:36.066Z,10.70
2023-01-22T05:41:46.578Z,10.90
2023-01-22T05:49:53.099Z,11.00
2023-01-22T05:58:02.660Z,10.20
2023-01-22T06:06:11.556Z,10.10
2023-01-22T06:14:20.810Z,10.60
2023-01-22T06:22:27.765Z,10.80
2023-01-22T06:30:39.567Z,10.30
2023-01-22T06:38:45.748Z,10.70
2023-01-22T06:46:59.406Z,10.90
2023-01-22T06:55:08.897Z,11.10
2023-01-22T07:03:19.800Z,11.10
2023-01-22T07:11:25.522Z,10.90
2023-01-22T07:19:33.711Z,10.90
2023-01-22T07:27:39.665Z,10.80
2023-01-22T07:35:48.479Z,10.60
2023-01-22T07:43:56.303Z,11.00
2023-01-22T07:52:04.415Z,10.70
2023-01-22T08:00:11.597Z,11.70
2023-01-22T08:08:23.422Z,11.80
2023-01-22T08:16:28.855Z,12.00
2023-01-22T08:24:37.330Z,12.40
2023-01-22T08:32:45.555Z,12.40
2023-01-22T08:40:56.071Z,12.70
2023-01-22T08:49:01.587Z,11.80
2023-01-22T08:57:09.918Z,11.70
2023-01-22T09:05:15.994Z,11.70
2023-01-22T09:13:23.990Z,11.80
2023-01-22T09:21:29.777Z,11.20
2023-01-22T09:29:37.956Z,11.90
2023-01-22T09:37:43.367Z,12.70
2023-01-22T09:45:58.190Z,13.40
2023-01-22T09:54:07.740Z,13.90
2023-01-22T10:02:26.943Z,13.50
2023-01-22T10:10:33.623Z,13.90
2023-01-22T10:18:52.163Z,13.80
2023-01-22T10:26:59.878Z,13.60
2023-01-22T10:35:24.658Z,13.60
2023-01-22T10:43:36.248Z,13.90
2023-01-22T10:51:46.993Z,14.00
2023-01-22T10:59:53.998Z,14.10
2023-01-22T11:08:06.794Z,14.20
2023-01-22T11:16:21.683Z,14.40
2023-01-22T11:24:57.937Z,14.30
2023-01-22T11:33:21.552Z,14.30
2023-01-22T11:41:50.904Z,14.40
2023-01-22T11:50:13.880Z,14.60
2023-01-22T11:58:33.676Z,14.60
2023-01-22T12:07:05.942Z,14.60
2023-01-22T12:15:25.006Z,14.60
2023-01-22T12:23:39.007Z,14.70
2023-01-22T12:31:52.825Z,14.70
2023-01-22T12:40:19.920Z,14.70
2023-01-22T12:48:37.279Z,13.50
2023-01-22T12:56:47.802Z,14.30
2023-01-22T13:04:53.919Z,14.60
2023-01-22T13:13:05.359Z,14.60
2023-01-22T13:21:13.025Z,14.70
2023-01-22T13:29:28.189Z,14.70
2023-01-22T13:37:35.854Z,14.90
2023-01-22T13:45:43.933Z,15.20
2023-01-22T13:53:53.800Z,14.90
2023-01-22T14:02:03.517Z,14.90
2023-01-22T14:10:19.023Z,14.90
2023-01-22T14:18:33.327Z,15.10
2023-01-22T14:26:39.228Z,15.20
2023-01-22T14:34:47.628Z,15.20
2023-01-22T14:42:53.848Z,15.00
2023-01-22T14:51:02.536Z,14.80
2023-01-22T14:59:08.020Z,14.80
2023-01-22T15:07:18.099Z,14.70
2023-01-22T15:15:27.292Z,14.60
2023-01-22T15:23:35.980Z,14.40
2023-01-22T15:31:42.308Z,14.40
2023-01-22T15:39:50.837Z,14.40
2023-01-22T15:47:56.608Z,14.20
2023-01-22T15:56:05.617Z,14.10
2023-01-22T16:04:11.062Z,14.20
2023-01-22T16:12:19.844Z,14.20
2023-01-22T16:20:25.500Z,14.10
2023-01-22T16:28:33.848Z,14.00
2023-01-22T16:36:39.822Z,14.10
2023-01-22T16:44:47.950Z,13.90
2023-01-22T16:52:53.451Z,13.90
2023-01-22T17:01:01.563Z,13.80
2023-01-22T17:09:07.279Z,13.80
2023-01-22T17:17:15.289Z,13.90
2023-01-22T17:25:26.907Z,13.90
2023-01-22T17:33:35.679Z,13.90
2023-01-22T17:41:41.126Z,13.80
2023-01-22T17:49:49.215Z,13.90
2023-01-22T17:57:59.442Z,13.60
2023-01-22T18:06:08.406Z,13.70
2023-01-22T18:14:18.465Z,13.60
2023-01-22T18:22:26.694Z,13.60
2023-01-22T18:30:32.333Z,13.60
2023-01-22T18:38:40.976Z,13.80
2023-01-22T18:46:52.583Z,13.50
2023-01-22T18:55:00.779Z,13.50
2023-01-22T19:03:06.686Z,13.60
2023-01-22T19:11:16.127Z,13.50
2023-01-22T19:19:22.946Z,13.50
2023-01-22T19:27:32.574Z,13.60
2023-01-22T19:35:37.883Z,13.60
2023-01-22T19:43:46.075Z,13.70
2023-01-22T19:51:52.065Z,13.30
2023-01-22T20:00:00.957Z,13.20
2023-01-22T20:08:06.316Z,13.10
2023-01-22T20:16:21.385Z,13.20
2023-01-22T20:24:28.359Z,13.50
2023-01-22T20:32:37.378Z,13.60
2023-01-22T20:40:50.718Z,13.40
2023-01-22T20:49:00.810Z,12.80
2023-01-22T20:57:06.655Z,12.80
2023-01-22T21:05:14.991Z,12.80
2023-01-22T21:13:24.010Z,12.50
2023-01-22T21:21:34.310Z,13.00
2023-01-22T21:29:39.819Z,13.00
2023-01-22T21:37:48.305Z,13.00
2023-01-22T21:46:06.300Z,13.30
2023-01-22T21:54:16.870Z,13.30
2023-01-22T22:02:22.892Z,13.30
2023-01-22T22:10:31.051Z,12.90
2023-01-22T22:18:37.777Z,13.10
2023-01-22T22:26:46.018Z,13.20
2023-01-22T22:34:52.066Z,13.40
2023-01-22T22:43:00.085Z,13.50
2023-01-22T22:51:13.107Z,13.50
2023-01-22T22:59:21.490Z,12.90
2023-01-22T23:07:26.811Z,13.00
2023-01-22T23:15:35.467Z,13.30
2023-01-22T23:23:41.966Z,13.40
2023-01-22T23:31:50.038Z,13.40
2023-01-22T23:39:55.765Z,13.30
2023-01-22T23:48:04.452Z,13.40
2023-01-22T23:56:11.098Z,13.40
